sensor_id;sensor_type;location;lat;lon;timestamp;pressure;altitude;pressure_sealevel;temperature;humidity
80500;BME280;69823;54.120;-4.710;2023-08-01T00:01:43;98224.75;;;24.51;29.35
80500;BME280;69823;54.120;-4.710;2023-08-01T00:04:08;98223.69;;;24.64;29.17
80500;BME280;69823;54.120;-4.710;2023-08-01T00:06:34;98226.47;;;24.66;29.22
80500;BME280;69823;54.120;-4.710;2023-08-01T00:09:00;98225.41;;;24.60;29.26
80500;BME280;69823;54.120;-4.710;2023-08-01T00:11:26;98225.60;;;24.42;29.25
80500;BME280;69823;54.120;-4.710;2023-08-01T00:13:51;98232.88;;;24.54;29.38
80500;BME280;69823;54.120;-4.710;2023-08-01T00:16:17;98229.29;;;24.44;29.54
80500;BME280;69823;54.120;-4.710;2023-08-01T00:18:43;98225.58;;;24.39;29.66
80500;BME280;69823;54.120;-4.710;2023-08-01T00:21:09;98229.54;;;24.43;29.63
80500;BME280;69823;54.120;-4.710;2023-08-01T00:23:34;98223.49;;;24.39;29.57
80500;BME280;69823;54.120;-4.710;2023-08-01T00:26:00;98219.28;;;24.29;29.78
80500;BME280;69823;54.120;-4.710;2023-08-01T00:28:26;98221.52;;;24.01;29.73
80500;BME280;69823;54.120;-4.710;2023-08-01T00:31:02;98217.37;;;24.23;29.73
80500;BME280;69823;54.120;-4.710;2023-08-01T00:33:17;98220.35;;;24.21;29.76
80500;BME280;69823;54.120;-4.710;2023-08-01T00:35:43;98216.44;;;24.06;29.99
80500;BME280;69823;54.120;-4.710;2023-08-01T00:38:09;98215.99;;;23.98;29.96
80500;BME280;69823;54.120;-4.710;2023-08-01T00:40:35;98216.44;;;24.07;29.95
80500;BME280;69823;54.120;-4.710;2023-08-01T00:43:00;98217.50;;;23.88;29.82
80500;BME280;69823;54.120;-4.710;2023-08-01T00:45:27;98214.52;;;24.44;29.63
80500;BME280;69823;54.120;-4.710;2023-08-01T00:47:53;98213.76;;;24.15;29.82
80500;BME280;69823;54.120;-4.710;2023-08-01T00:50:18;98212.64;;;24.11;29.83
80500;BME280;69823;54.120;-4.710;2023-08-01T00:52:43;98214.70;;;23.97;29.92
80500;BME280;69823;54.120;-4.710;2023-08-01T00:55:09;98214.40;;;24.03;30.22
80500;BME280;69823;54.120;-4.710;2023-08-01T00:57:35;98215.65;;;24.02;29.92
80500;BME280;69823;54.120;-4.710;2023-08-01T01:00:01;98218.65;;;23.98;29.93
80500;BME280;69823;54.120;-4.710;2023-08-01T01:02:26;98220.48;;;23.77;29.78
80500;BME280;69823;54.120;-4.710;2023-08-01T01:04:52;98221.25;;;24.07;29.76
80500;BME280;69823;54.120;-4.710;2023-08-01T01:07:19;98222.54;;;24.12;29.72
80500;BME280;69823;54.120;-4.710;2023-08-01T01:09:44;98222.02;;;24.17;29.64
80500;BME280;69823;54.120;-4.710;2023-08-01T01:12:09;98221.94;;;23.97;29.62
80500;BME280;69823;54.120;-4.710;2023-08-01T01:14:35;98216.63;;;24.25;29.61
80500;BME280;69823;54.120;-4.710;2023-08-01T01:17:01;98223.98;;;24.07;29.77
80500;BME280;69823;54.120;-4.710;2023-08-01T01:19:27;98222.02;;;24.13;29.58
80500;BME280;69823;54.120;-4.710;2023-08-01T01:21:53;98221.32;;;24.12;29.69
80500;BME280;69823;54.120;-4.710;2023-08-01T01:24:20;98218.87;;;23.81;29.68
80500;BME280;69823;54.120;-4.710;2023-08-01T01:26:44;98217.43;;;24.05;29.67
80500;BME280;69823;54.120;-4.710;2023-08-01T01:29:11;98222.37;;;23.80;29.62
80500;BME280;69823;54.120;-4.710;2023-08-01T01:31:36;98222.71;;;24.26;29.33
80500;BME280;69823;54.120;-4.710;2023-08-01T01:34:02;98221.25;;;24.36;29.58
80500;BME280;69823;54.120;-4.710;2023-08-01T01:36:27;98223.08;;;23.86;29.51
80500;BME280;69823;54.120;-4.710;2023-08-01T01:38:54;98221.92;;;24.05;29.60
80500;BME280;69823;54.120;-4.710;2023-08-01T01:41:19;98226.90;;;24.17;29.57
80500;BME280;69823;54.120;-4.710;2023-08-01T01:43:44;98228.51;;;24.13;29.63
80500;BME280;69823;54.120;-4.710;2023-08-01T01:46:10;98229.80;;;23.69;29.47
80500;BME280;69823;54.120;-4.710;2023-08-01T01:48:36;98233.35;;;24.06;29.68
80500;BME280;69823;54.120;-4.710;2023-08-01T01:51:02;98230.60;;;23.88;29.57
80500;BME280;69823;54.120;-4.710;2023-08-01T01:53:27;98232.41;;;24.03;29.65
80500;BME280;69823;54.120;-4.710;2023-08-01T01:55:53;98221.79;;;23.99;29.40
80500;BME280;69823;54.120;-4.710;2023-08-01T01:58:19;98219.83;;;24.52;29.18
80500;BME280;69823;54.120;-4.710;2023-08-01T02:00:45;98224.81;;;24.40;29.09
80500;BME280;69823;54.120;-4.710;2023-08-01T02:03:10;98219.74;;;24.44;29.05
80500;BME280;69823;54.120;-4.710;2023-08-01T02:05:36;98224.95;;;24.21;29.09
80500;BME280;69823;54.120;-4.710;2023-08-01T02:08:02;98221.44;;;24.57;28.93
80500;BME280;69823;54.120;-4.710;2023-08-01T02:10:28;98216.19;;;24.44;29.07
80500;BME280;69823;54.120;-4.710;2023-08-01T02:12:53;98211.52;;;24.26;29.32
80500;BME280;69823;54.120;-4.710;2023-08-01T02:15:19;98212.69;;;24.21;29.33
80500;BME280;69823;54.120;-4.710;2023-08-01T02:17:45;98207.75;;;24.26;29.38
80500;BME280;69823;54.120;-4.710;2023-08-01T02:20:11;98209.76;;;24.31;29.35
80500;BME280;69823;54.120;-4.710;2023-08-01T02:22:36;98203.59;;;24.44;28.97
80500;BME280;69823;54.120;-4.710;2023-08-01T02:25:03;98204.07;;;24.33;29.18
80500;BME280;69823;54.120;-4.710;2023-08-01T02:27:28;98197.94;;;24.58;28.78
80500;BME280;69823;54.120;-4.710;2023-08-01T02:29:54;98197.46;;;24.44;28.91
80500;BME280;69823;54.120;-4.710;2023-08-01T02:32:19;98195.67;;;24.31;29.16
80500;BME280;69823;54.120;-4.710;2023-08-01T02:34:46;98189.44;;;24.32;29.15
80500;BME280;69823;54.120;-4.710;2023-08-01T02:37:11;98188.25;;;24.29;29.35
80500;BME280;69823;54.120;-4.710;2023-08-01T02:39:37;98192.97;;;24.72;29.28
80500;BME280;69823;54.120;-4.710;2023-08-01T02:42:03;98185.42;;;24.29;29.18
80500;BME280;69823;54.120;-4.710;2023-08-01T02:44:28;98187.72;;;24.34;29.18
80500;BME280;69823;54.120;-4.710;2023-08-01T02:46:54;98180.65;;;24.39;29.10
80500;BME280;69823;54.120;-4.710;2023-08-01T02:49:20;98190.42;;;24.40;29.12
80500;BME280;69823;54.120;-4.710;2023-08-01T02:51:45;98192.96;;;24.34;29.11
80500;BME280;69823;54.120;-4.710;2023-08-01T02:54:11;98191.40;;;24.35;29.17
80500;BME280;69823;54.120;-4.710;2023-08-01T02:56:37;98193.36;;;24.33;29.22
80500;BME280;69823;54.120;-4.710;2023-08-01T02:59:02;98189.69;;;24.29;29.11
80500;BME280;69823;54.120;-4.710;2023-08-01T03:01:28;98195.11;;;24.40;29.10
80500;BME280;69823;54.120;-4.710;2023-08-01T03:03:54;98199.91;;;24.32;29.17
80500;BME280;69823;54.120;-4.710;2023-08-01T03:06:20;98200.52;;;24.43;29.10
80500;BME280;69823;54.120;-4.710;2023-08-01T03:08:45;98200.55;;;24.35;29.10
80500;BME280;69823;54.120;-4.710;2023-08-01T03:11:11;98209.19;;;24.52;28.86
80500;BME280;69823;54.120;-4.710;2023-08-01T03:13:37;98211.58;;;24.24;28.96
80500;BME280;69823;54.120;-4.710;2023-08-01T03:16:03;98214.93;;;24.39;28.75
80500;BME280;69823;54.120;-4.710;2023-08-01T03:18:28;98223.66;;;24.42;28.79
80500;BME280;69823;54.120;-4.710;2023-08-01T03:20:54;98215.85;;;24.37;28.80
80500;BME280;69823;54.120;-4.710;2023-08-01T03:23:20;98221.52;;;24.73;28.51
80500;BME280;69823;54.120;-4.710;2023-08-01T03:25:46;98232.39;;;24.52;28.77
80500;BME280;69823;54.120;-4.710;2023-08-01T03:28:11;98222.04;;;24.51;28.84
80500;BME280;69823;54.120;-4.710;2023-08-01T03:30:37;98223.85;;;24.56;28.73
80500;BME280;69823;54.120;-4.710;2023-08-01T03:33:03;98226.57;;;24.63;28.64
80500;BME280;69823;54.120;-4.710;2023-08-01T03:35:29;98224.29;;;24.62;28.55
80500;BME280;69823;54.120;-4.710;2023-08-01T03:37:54;98230.64;;;24.41;28.57
80500;BME280;69823;54.120;-4.710;2023-08-01T03:40:20;98227.36;;;24.63;28.70
80500;BME280;69823;54.120;-4.710;2023-08-01T03:42:46;98231.04;;;24.59;28.73
80500;BME280;69823;54.120;-4.710;2023-08-01T03:45:12;98232.61;;;24.55;28.63
80500;BME280;69823;54.120;-4.710;2023-08-01T03:47:38;98234.37;;;24.50;28.74
80500;BME280;69823;54.120;-4.710;2023-08-01T03:50:04;98237.66;;;24.37;28.67
80500;BME280;69823;54.120;-4.710;2023-08-01T03:52:29;98238.29;;;24.56;28.70
80500;BME280;69823;54.120;-4.710;2023-08-01T03:54:55;98238.91;;;24.05;28.68
80500;BME280;69823;54.120;-4.710;2023-08-01T03:57:21;98242.29;;;24.53;28.65
80500;BME280;69823;54.120;-4.710;2023-08-01T03:59:47;98249.20;;;24.62;28.62
80500;BME280;69823;54.120;-4.710;2023-08-01T04:02:12;98247.27;;;24.56;28.65
80500;BME280;69823;54.120;-4.710;2023-08-01T04:04:38;98247.15;;;24.30;28.72
80500;BME280;69823;54.120;-4.710;2023-08-01T04:07:04;98247.03;;;24.46;28.74
80500;BME280;69823;54.120;-4.710;2023-08-01T04:09:29;98252.64;;;24.39;28.79
80500;BME280;69823;54.120;-4.710;2023-08-01T04:11:55;98250.61;;;24.15;28.88
80500;BME280;69823;54.120;-4.710;2023-08-01T04:14:21;98251.49;;;24.52;28.54
80500;BME280;69823;54.120;-4.710;2023-08-01T04:16:47;98253.31;;;24.36;28.87
80500;BME280;69823;54.120;-4.710;2023-08-01T04:19:12;98262.12;;;24.37;28.85
80500;BME280;69823;54.120;-4.710;2023-08-01T04:21:38;98261.15;;;24.34;28.90
80500;BME280;69823;54.120;-4.710;2023-08-01T04:24:04;98259.34;;;24.42;28.71
80500;BME280;69823;54.120;-4.710;2023-08-01T04:26:30;98261.97;;;24.35;28.78
80500;BME280;69823;54.120;-4.710;2023-08-01T04:28:56;98253.23;;;24.48;28.56
80500;BME280;69823;54.120;-4.710;2023-08-01T04:31:21;98257.53;;;24.41;28.76
80500;BME280;69823;54.120;-4.710;2023-08-01T04:33:47;98258.50;;;24.11;28.85
80500;BME280;69823;54.120;-4.710;2023-08-01T04:36:13;98251.99;;;24.48;28.72
80500;BME280;69823;54.120;-4.710;2023-08-01T04:38:39;98251.90;;;24.16;28.68
80500;BME280;69823;54.120;-4.710;2023-08-01T04:41:04;98255.79;;;24.45;28.70
80500;BME280;69823;54.120;-4.710;2023-08-01T04:43:30;98258.60;;;24.25;28.87
80500;BME280;69823;54.120;-4.710;2023-08-01T04:45:56;98258.17;;;24.32;28.77
80500;BME280;69823;54.120;-4.710;2023-08-01T04:48:22;98261.27;;;24.45;28.70
80500;BME280;69823;54.120;-4.710;2023-08-01T04:50:47;98264.28;;;24.37;28.81
80500;BME280;69823;54.120;-4.710;2023-08-01T04:53:13;98266.51;;;24.39;28.75
80500;BME280;69823;54.120;-4.710;2023-08-01T04:55:40;98270.15;;;24.22;28.68
80500;BME280;69823;54.120;-4.710;2023-08-01T04:58:05;98269.31;;;24.49;28.58
80500;BME280;69823;54.120;-4.710;2023-08-01T05:00:30;98269.68;;;24.72;28.48
80500;BME280;69823;54.120;-4.710;2023-08-01T05:02:56;98273.05;;;24.49;28.57
80500;BME280;69823;54.120;-4.710;2023-08-01T05:05:22;98276.85;;;24.48;28.52
80500;BME280;69823;54.120;-4.710;2023-08-01T05:07:48;98281.17;;;24.53;28.27
80500;BME280;69823;54.120;-4.710;2023-08-01T05:10:14;98280.57;;;24.71;28.53
80500;BME280;69823;54.120;-4.710;2023-08-01T05:12:39;98281.51;;;24.48;28.44
80500;BME280;69823;54.120;-4.710;2023-08-01T05:15:06;98283.54;;;24.02;29.08
80500;BME280;69823;54.120;-4.710;2023-08-01T05:17:31;98286.90;;;24.15;28.97
80500;BME280;69823;54.120;-4.710;2023-08-01T05:19:57;98291.44;;;24.29;28.87
80500;BME280;69823;54.120;-4.710;2023-08-01T05:22:22;98290.52;;;24.37;28.76
80500;BME280;69823;54.120;-4.710;2023-08-01T05:24:48;98292.01;;;24.39;28.70
80500;BME280;69823;54.120;-4.710;2023-08-01T05:27:14;98295.36;;;24.30;28.87
80500;BME280;69823;54.120;-4.710;2023-08-01T05:29:40;98295.01;;;24.30;28.84
80500;BME280;69823;54.120;-4.710;2023-08-01T05:32:06;98292.36;;;24.27;28.92
80500;BME280;69823;54.120;-4.710;2023-08-01T05:34:31;98292.93;;;24.24;28.95
80500;BME280;69823;54.120;-4.710;2023-08-01T05:36:57;98291.44;;;24.38;28.75
80500;BME280;69823;54.120;-4.710;2023-08-01T05:39:23;98289.80;;;24.20;28.66
80500;BME280;69823;54.120;-4.710;2023-08-01T05:41:49;98291.39;;;24.59;28.44
80500;BME280;69823;54.120;-4.710;2023-08-01T05:44:14;98291.86;;;24.38;28.43
80500;BME280;69823;54.120;-4.710;2023-08-01T05:46:40;98290.62;;;24.46;28.63
80500;BME280;69823;54.120;-4.710;2023-08-01T05:49:06;98293.62;;;24.29;28.81
80500;BME280;69823;54.120;-4.710;2023-08-01T05:51:31;98295.66;;;24.06;28.76
80500;BME280;69823;54.120;-4.710;2023-08-01T05:53:57;98298.13;;;24.24;28.81
80500;BME280;69823;54.120;-4.710;2023-08-01T05:56:23;98303.63;;;23.98;29.41
80500;BME280;69823;54.120;-4.710;2023-08-01T05:58:49;98306.37;;;23.78;29.21
80500;BME280;69823;54.120;-4.710;2023-08-01T06:01:15;98308.01;;;23.83;29.22
80500;BME280;69823;54.120;-4.710;2023-08-01T06:03:40;98308.58;;;23.82;29.15
80500;BME280;69823;54.120;-4.710;2023-08-01T06:06:06;98310.16;;;23.32;29.12
80500;BME280;69823;54.120;-4.710;2023-08-01T06:08:32;98315.31;;;24.03;28.96
80500;BME280;69823;54.120;-4.710;2023-08-01T06:10:58;98312.17;;;23.57;28.86
80500;BME280;69823;54.120;-4.710;2023-08-01T06:13:23;98317.67;;;23.54;28.82
80500;BME280;69823;54.120;-4.710;2023-08-01T06:15:49;98320.88;;;23.84;28.79
80500;BME280;69823;54.120;-4.710;2023-08-01T06:18:15;98320.89;;;23.55;28.72
80500;BME280;69823;54.120;-4.710;2023-08-01T06:20:41;98322.93;;;23.71;28.56
80500;BME280;69823;54.120;-4.710;2023-08-01T06:23:06;98323.32;;;23.66;28.56
80500;BME280;69823;54.120;-4.710;2023-08-01T06:25:32;98325.05;;;23.80;28.49
80500;BME280;69823;54.120;-4.710;2023-08-01T06:27:58;98327.02;;;23.74;28.34
80500;BME280;69823;54.120;-4.710;2023-08-01T06:30:24;98325.71;;;23.77;28.31
80500;BME280;69823;54.120;-4.710;2023-08-01T06:32:49;98328.24;;;23.97;28.35
80500;BME280;69823;54.120;-4.710;2023-08-01T06:35:15;98330.91;;;23.85;28.29
80500;BME280;69823;54.120;-4.710;2023-08-01T06:37:41;98327.38;;;23.79;28.34
80500;BME280;69823;54.120;-4.710;2023-08-01T06:40:08;98328.30;;;23.67;28.27
80500;BME280;69823;54.120;-4.710;2023-08-01T06:42:32;98330.15;;;23.75;28.23
80500;BME280;69823;54.120;-4.710;2023-08-01T06:44:58;98330.07;;;23.71;28.24
80500;BME280;69823;54.120;-4.710;2023-08-01T06:47:24;98334.22;;;24.02;28.18
80500;BME280;69823;54.120;-4.710;2023-08-01T06:49:50;98332.08;;;23.90;28.08
80500;BME280;69823;54.120;-4.710;2023-08-01T06:52:15;98330.79;;;24.16;28.02
80500;BME280;69823;54.120;-4.710;2023-08-01T06:54:41;98330.53;;;24.21;28.00
80500;BME280;69823;54.120;-4.710;2023-08-01T06:57:07;98334.89;;;23.97;27.92
80500;BME280;69823;54.120;-4.710;2023-08-01T06:59:33;98333.63;;;23.96;27.96
80500;BME280;69823;54.120;-4.710;2023-08-01T07:01:58;98335.17;;;24.22;27.96
80500;BME280;69823;54.120;-4.710;2023-08-01T07:04:24;98331.29;;;24.12;27.85
80500;BME280;69823;54.120;-4.710;2023-08-01T07:06:50;98333.60;;;24.19;27.74
80500;BME280;69823;54.120;-4.710;2023-08-01T07:09:16;98333.89;;;24.33;27.73
80500;BME280;69823;54.120;-4.710;2023-08-01T07:11:41;98332.34;;;24.21;27.73
80500;BME280;69823;54.120;-4.710;2023-08-01T07:14:07;98330.72;;;24.18;27.66
80500;BME280;69823;54.120;-4.710;2023-08-01T07:16:33;98339.09;;;24.05;27.65
80500;BME280;69823;54.120;-4.710;2023-08-01T07:19:00;98342.18;;;24.14;27.66
80500;BME280;69823;54.120;-4.710;2023-08-01T07:21:24;98340.35;;;24.03;27.66
80500;BME280;69823;54.120;-4.710;2023-08-01T07:23:51;98338.76;;;23.95;27.69
80500;BME280;69823;54.120;-4.710;2023-08-01T07:26:16;98344.80;;;24.12;27.75
80500;BME280;69823;54.120;-4.710;2023-08-01T07:28:42;98347.93;;;23.92;27.77
80500;BME280;69823;54.120;-4.710;2023-08-01T07:31:08;98345.63;;;23.99;27.70
80500;BME280;69823;54.120;-4.710;2023-08-01T07:33:34;98346.64;;;24.38;27.63
80500;BME280;69823;54.120;-4.710;2023-08-01T07:35:59;98342.88;;;24.48;27.52
80500;BME280;69823;54.120;-4.710;2023-08-01T07:38:25;98343.50;;;24.18;27.44
80500;BME280;69823;54.120;-4.710;2023-08-01T07:40:51;98341.45;;;24.34;27.44
80500;BME280;69823;54.120;-4.710;2023-08-01T07:43:16;98344.21;;;24.62;27.36
80500;BME280;69823;54.120;-4.710;2023-08-01T07:45:42;98345.51;;;24.51;27.38
80500;BME280;69823;54.120;-4.710;2023-08-01T07:48:08;98347.92;;;24.33;27.30
80500;BME280;69823;54.120;-4.710;2023-08-01T07:50:34;98348.87;;;24.43;27.25
80500;BME280;69823;54.120;-4.710;2023-08-01T07:52:59;98347.75;;;24.03;27.27
80500;BME280;69823;54.120;-4.710;2023-08-01T07:55:25;98351.82;;;24.10;27.31
80500;BME280;69823;54.120;-4.710;2023-08-01T07:57:51;98350.87;;;24.48;27.31
80500;BME280;69823;54.120;-4.710;2023-08-01T08:00:17;98345.81;;;24.24;27.29
80500;BME280;69823;54.120;-4.710;2023-08-01T08:02:44;98348.29;;;24.51;27.27
80500;BME280;69823;54.120;-4.710;2023-08-01T08:05:08;98350.16;;;24.64;27.23
80500;BME280;69823;54.120;-4.710;2023-08-01T08:07:34;98350.80;;;24.36;27.24
80500;BME280;69823;54.120;-4.710;2023-08-01T08:10:00;98350.04;;;24.46;27.15
80500;BME280;69823;54.120;-4.710;2023-08-01T08:12:25;98352.94;;;24.73;27.09
80500;BME280;69823;54.120;-4.710;2023-08-01T08:14:51;98359.17;;;24.66;27.13
80500;BME280;69823;54.120;-4.710;2023-08-01T08:17:17;98357.73;;;24.51;27.11
80500;BME280;69823;54.120;-4.710;2023-08-01T08:19:43;98358.82;;;24.24;27.09
80500;BME280;69823;54.120;-4.710;2023-08-01T08:22:08;98353.27;;;24.72;27.13
80500;BME280;69823;54.120;-4.710;2023-08-01T08:24:35;98357.36;;;24.43;27.11
80500;BME280;69823;54.120;-4.710;2023-08-01T08:27:00;98361.50;;;24.69;27.08
80500;BME280;69823;54.120;-4.710;2023-08-01T08:29:26;98363.83;;;24.37;27.14
80500;BME280;69823;54.120;-4.710;2023-08-01T08:31:52;98361.27;;;24.39;27.12
80500;BME280;69823;54.120;-4.710;2023-08-01T08:34:17;98362.13;;;24.38;26.99
80500;BME280;69823;54.120;-4.710;2023-08-01T08:36:43;98363.49;;;24.60;27.02
80500;BME280;69823;54.120;-4.710;2023-08-01T08:39:09;98360.86;;;24.65;26.84
80500;BME280;69823;54.120;-4.710;2023-08-01T08:41:38;98360.14;;;24.54;26.86
80500;BME280;69823;54.120;-4.710;2023-08-01T08:44:02;98361.50;;;24.50;26.96
80500;BME280;69823;54.120;-4.710;2023-08-01T08:46:28;98361.04;;;24.78;26.89
80500;BME280;69823;54.120;-4.710;2023-08-01T08:48:52;98362.31;;;24.71;26.75
80500;BME280;69823;54.120;-4.710;2023-08-01T08:51:18;98361.59;;;24.68;26.79
80500;BME280;69823;54.120;-4.710;2023-08-01T08:53:45;98358.90;;;24.57;26.88
80500;BME280;69823;54.120;-4.710;2023-08-01T08:56:10;98365.30;;;24.44;26.95
80500;BME280;69823;54.120;-4.710;2023-08-01T08:58:35;98364.39;;;24.66;26.93
80500;BME280;69823;54.120;-4.710;2023-08-01T09:01:01;98367.32;;;24.63;26.82
80500;BME280;69823;54.120;-4.710;2023-08-01T09:03:27;98367.15;;;24.82;26.80
80500;BME280;69823;54.120;-4.710;2023-08-01T09:06:00;98367.37;;;24.81;26.70
80500;BME280;69823;54.120;-4.710;2023-08-01T09:08:20;98369.57;;;24.64;26.79
80500;BME280;69823;54.120;-4.710;2023-08-01T09:10:44;98373.08;;;24.81;26.73
80500;BME280;69823;54.120;-4.710;2023-08-01T09:13:09;98377.74;;;24.73;26.65
80500;BME280;69823;54.120;-4.710;2023-08-01T09:15:35;98374.24;;;24.63;26.73
80500;BME280;69823;54.120;-4.710;2023-08-01T09:18:06;98377.34;;;24.73;26.73
80500;BME280;69823;54.120;-4.710;2023-08-01T09:20:27;98381.54;;;24.74;26.70
80500;BME280;69823;54.120;-4.710;2023-08-01T09:22:52;98382.29;;;24.91;26.65
80500;BME280;69823;54.120;-4.710;2023-08-01T09:25:18;98386.16;;;24.83;26.63
80500;BME280;69823;54.120;-4.710;2023-08-01T09:27:44;98388.02;;;24.82;26.66
80500;BME280;69823;54.120;-4.710;2023-08-01T09:30:12;98387.57;;;24.70;26.72
80500;BME280;69823;54.120;-4.710;2023-08-01T09:32:36;98388.98;;;24.89;26.70
80500;BME280;69823;54.120;-4.710;2023-08-01T09:35:01;98391.89;;;24.49;26.62
80500;BME280;69823;54.120;-4.710;2023-08-01T09:37:38;98392.26;;;24.88;26.72
80500;BME280;69823;54.120;-4.710;2023-08-01T09:39:53;98391.54;;;24.67;26.69
80500;BME280;69823;54.120;-4.710;2023-08-01T09:42:19;98395.88;;;24.70;26.63
80500;BME280;69823;54.120;-4.710;2023-08-01T09:44:45;98400.34;;;24.53;26.71
80500;BME280;69823;54.120;-4.710;2023-08-01T09:47:10;98400.53;;;24.45;26.77
80500;BME280;69823;54.120;-4.710;2023-08-01T09:52:03;98401.90;;;24.26;26.81
80500;BME280;69823;54.120;-4.710;2023-08-01T09:54:27;98406.66;;;24.24;26.79
80500;BME280;69823;54.120;-4.710;2023-08-01T09:56:54;98407.31;;;24.51;26.79
80500;BME280;69823;54.120;-4.710;2023-08-01T09:59:20;98405.34;;;24.72;26.65
80500;BME280;69823;54.120;-4.710;2023-08-01T10:01:47;98403.34;;;24.77;26.73
80500;BME280;69823;54.120;-4.710;2023-08-01T10:04:11;98402.40;;;24.58;26.71
80500;BME280;69823;54.120;-4.710;2023-08-01T10:06:37;98399.68;;;24.96;26.64
80500;BME280;69823;54.120;-4.710;2023-08-01T10:09:02;98396.58;;;24.78;26.65
80500;BME280;69823;54.120;-4.710;2023-08-01T10:11:33;98390.13;;;24.90;26.53
80500;BME280;69823;54.120;-4.710;2023-08-01T10:13:54;98392.28;;;24.47;26.59
80500;BME280;69823;54.120;-4.710;2023-08-01T10:16:20;98389.66;;;24.79;26.59
80500;BME280;69823;54.120;-4.710;2023-08-01T10:18:45;98393.06;;;24.94;26.54
80500;BME280;69823;54.120;-4.710;2023-08-01T10:21:13;98397.57;;;25.15;26.37
80500;BME280;69823;54.120;-4.710;2023-08-01T10:23:37;98395.86;;;25.14;26.37
80500;BME280;69823;54.120;-4.710;2023-08-01T10:26:05;98388.79;;;25.00;26.37
80500;BME280;69823;54.120;-4.710;2023-08-01T10:28:32;98389.43;;;25.11;26.34
80500;BME280;69823;54.120;-4.710;2023-08-01T10:30:54;98385.70;;;25.26;26.23
80500;BME280;69823;54.120;-4.710;2023-08-01T10:33:20;98384.40;;;25.34;26.21
80500;BME280;69823;54.120;-4.710;2023-08-01T10:35:45;98382.54;;;25.35;26.22
80500;BME280;69823;54.120;-4.710;2023-08-01T10:38:12;98376.50;;;25.33;26.21
80500;BME280;69823;54.120;-4.710;2023-08-01T10:40:38;98377.55;;;25.31;26.23
80500;BME280;69823;54.120;-4.710;2023-08-01T10:43:03;98376.08;;;25.07;26.27
80500;BME280;69823;54.120;-4.710;2023-08-01T10:45:28;98373.26;;;25.24;26.30
80500;BME280;69823;54.120;-4.710;2023-08-01T10:47:54;98372.02;;;25.20;26.34
80500;BME280;69823;54.120;-4.710;2023-08-01T10:50:20;98367.13;;;25.00;26.29
80500;BME280;69823;54.120;-4.710;2023-08-01T10:52:46;98367.62;;;25.29;26.30
80500;BME280;69823;54.120;-4.710;2023-08-01T10:55:12;98368.61;;;25.28;26.29
80500;BME280;69823;54.120;-4.710;2023-08-01T10:57:39;98366.48;;;25.20;26.36
80500;BME280;69823;54.120;-4.710;2023-08-01T11:00:05;98367.25;;;25.25;26.34
80500;BME280;69823;54.120;-4.710;2023-08-01T11:02:30;98363.35;;;25.44;26.17
80500;BME280;69823;54.120;-4.710;2023-08-01T11:04:55;98355.97;;;25.28;26.32
80500;BME280;69823;54.120;-4.710;2023-08-01T11:07:20;98355.32;;;25.34;26.25
80500;BME280;69823;54.120;-4.710;2023-08-01T11:09:46;98359.78;;;25.38;26.27
80500;BME280;69823;54.120;-4.710;2023-08-01T11:12:12;98359.76;;;25.39;26.27
80500;BME280;69823;54.120;-4.710;2023-08-01T11:14:37;98358.04;;;25.22;26.38
80500;BME280;69823;54.120;-4.710;2023-08-01T11:17:03;98360.00;;;25.24;26.37
80500;BME280;69823;54.120;-4.710;2023-08-01T11:19:30;98362.15;;;25.30;26.31
80500;BME280;69823;54.120;-4.710;2023-08-01T11:21:56;98363.12;;;25.30;26.33
80500;BME280;69823;54.120;-4.710;2023-08-01T11:24:20;98361.66;;;24.99;26.17
80500;BME280;69823;54.120;-4.710;2023-08-01T11:26:48;98366.84;;;25.16;26.23
80500;BME280;69823;54.120;-4.710;2023-08-01T11:29:12;98367.01;;;25.36;26.30
80500;BME280;69823;54.120;-4.710;2023-08-01T11:31:38;98367.23;;;25.62;26.00
80500;BME280;69823;54.120;-4.710;2023-08-01T11:34:04;98372.10;;;25.59;26.07
80500;BME280;69823;54.120;-4.710;2023-08-01T11:36:29;98376.02;;;25.47;26.17
80500;BME280;69823;54.120;-4.710;2023-08-01T11:38:57;98379.01;;;25.38;26.30
80500;BME280;69823;54.120;-4.710;2023-08-01T11:41:20;98379.52;;;25.43;26.25
80500;BME280;69823;54.120;-4.710;2023-08-01T11:43:46;98381.27;;;25.40;26.25
80500;BME280;69823;54.120;-4.710;2023-08-01T11:46:12;98384.64;;;25.20;26.22
80500;BME280;69823;54.120;-4.710;2023-08-01T11:48:38;98387.22;;;25.42;26.22
80500;BME280;69823;54.120;-4.710;2023-08-01T11:51:03;98391.69;;;25.19;26.22
80500;BME280;69823;54.120;-4.710;2023-08-01T11:53:30;98394.29;;;25.06;26.16
80500;BME280;69823;54.120;-4.710;2023-08-01T11:55:55;98394.21;;;25.57;26.14
80500;BME280;69823;54.120;-4.710;2023-08-01T11:58:28;98391.39;;;25.48;26.24
80500;BME280;69823;54.120;-4.710;2023-08-01T12:00:46;98388.13;;;25.51;26.20
80500;BME280;69823;54.120;-4.710;2023-08-01T12:03:12;98386.24;;;25.07;26.17
80500;BME280;69823;54.120;-4.710;2023-08-01T12:05:38;98386.14;;;25.54;26.17
80500;BME280;69823;54.120;-4.710;2023-08-01T12:08:10;98390.01;;;25.37;26.12
80500;BME280;69823;54.120;-4.710;2023-08-01T12:10:36;98388.24;;;25.61;26.12
80500;BME280;69823;54.120;-4.710;2023-08-01T12:12:55;98381.97;;;25.49;26.01
80500;BME280;69823;54.120;-4.710;2023-08-01T12:15:21;98382.07;;;25.68;26.04
80500;BME280;69823;54.120;-4.710;2023-08-01T12:17:46;98381.95;;;25.67;26.07
80500;BME280;69823;54.120;-4.710;2023-08-01T12:20:12;98381.51;;;25.55;25.99
80500;BME280;69823;54.120;-4.710;2023-08-01T12:22:38;98382.81;;;25.86;25.92
80500;BME280;69823;54.120;-4.710;2023-08-01T12:25:05;98383.50;;;25.64;25.90
80500;BME280;69823;54.120;-4.710;2023-08-01T12:27:29;98382.71;;;25.65;25.86
80500;BME280;69823;54.120;-4.710;2023-08-01T12:29:55;98380.70;;;25.61;25.91
80500;BME280;69823;54.120;-4.710;2023-08-01T12:32:21;98378.41;;;25.52;26.00
80500;BME280;69823;54.120;-4.710;2023-08-01T12:34:47;98382.60;;;25.14;26.15
80500;BME280;69823;54.120;-4.710;2023-08-01T12:37:12;98385.29;;;25.35;26.16
80500;BME280;69823;54.120;-4.710;2023-08-01T12:39:38;98379.20;;;25.37;26.19
80500;BME280;69823;54.120;-4.710;2023-08-01T12:42:05;98380.69;;;25.40;26.17
80500;BME280;69823;54.120;-4.710;2023-08-01T12:44:30;98375.90;;;25.35;26.24